Etusivu
METAR-TAF:

METAR-TAF

Lentoasemat :

Gibraltarin lentoasema

Gibraltar, Gibraltar

Leveyspiiri: 36-09N, Pituuspiiri: 005-21W, korkeus merenpinnasta: 5 m

Tämänhetkinen sää

Tämä raportti tehtiin 59 minuuttia sitten, kello 17.50 UTC
Tuuli 10 kn lännestä/lounaasta
Lämpötila 24°C
Kosteus 38%
Ilmanpaine 1012 hPa
Näkyvyys 10 km tai enemmän
Muutamia pilviä 5000 ft:n korkeudessa

METAR: LXGB 201750Z 24010KT 9999 FEW050 24/09 Q1012 NOSIG

Aika: 20:49 (18:49 UTC)

Sääennuste

Tämä raportti tehtiin 2 tuntia ja 15 minuuttia sitten, kello 16.34 UTC
Ennuste voimassa 20. päivästä klo 18 UTC - 22. päivään klo 22 UTC
Tuuli 12 kn lännestä
Näkyvyys 10 km tai enemmän
ei pilviä alle 1500 m:ssä eikä cumulonimbus-pilviä

TAF: LXGB 201634Z 2018/2222 26012KT CAVOK

Säähavainnot ja -ennusteet yli 4000 lentoasemalta (METAR- ja TAF-raportit).

Käytössä olevat sääasemat on merkitty karttaan keltaisilla ja punaisilla pisteillä.

Aseta hiiri pisteen päälle nähdäksesi sääaseman nimen.

Klikkaa sitten nähdäksesi säähavainnot ja -ennusteet.

Kartan vaihtaminen: klikkaa mustalla rastilla varustettuja vihreitä pisteitä, niin voit zoomata sisään; viivalla varustettua vihreää pistettä, niin voit zoomata ulos tai vihreitä nuolia, niin pääset viereisille kartoille.


METAR-TAF: